Time,TemperatureF,DewpointF,PressureIn,WindDirection,WindDirectionDegrees,WindSpeedMPH,WindSpeedGustMPH,Humidity,HourlyPrecipIn,Conditions,Clouds,dailyrainin,SolarRadiationWatts/m^2,SoftwareType,DateUTC
2015-02-01 00:01:00,39.5,38.2,30.04,WNW,293,0.0,0.0,95,0.00,,---,0.00,0.00,VWS V14.01,2015-02-01 08:01:00,
2015-02-01 00:06:00,39.4,38.1,30.04,WNW,293,1.0,2.0,95,0.00,,---,0.00,0.00,VWS V14.01,2015-02-01 08:06:00,
2015-02-01 00:11:00,39.4,38.4,30.04,WNW,293,0.0,2.0,96,0.00,,---,0.00,0.00,VWS V14.01,2015-02-01 08:11:00,
2015-02-01 00:16:00,39.4,38.4,30.04,WNW,293,0.0,1.0,96,0.00,,---,0.00,0.00,VWS V14.01,2015-02-01 08:16:00,
2015-02-01 00:21:00,39.3,38.0,30.04,WNW,293,0.0,0.0,95,0.00,,---,0.00,0.00,VWS V14.01,2015-02-01 08:21:00,
2015-02-01 00:26:00,39.3,38.0,30.03,WNW,293,0.0,2.0,95,0.00,,---,0.00,0.00,VWS V14.01,2015-02-01 08:26:00,
2015-02-01 00:31:00,39.3,38.0,30.04,WNW,293,0.0,0.0,95,0.00,,---,0.00,0.00,VWS V14.01,2015-02-01 08:31:00,
2015-02-01 00:36:00,39.2,37.9,30.03,WNW,293,0.0,0.0,95,0.00,,---,0.00,0.00,VWS V14.01,2015-02-01 08:36:00,
2015-02-01 00:41:00,39.1,37.8,30.03,WNW,293,0.0,0.0,95,0.00,,---,0.00,0.00,VWS V14.01,2015-02-01 08:41:00,
2015-02-01 00:46:00,39.1,37.8,30.03,WNW,293,0.0,0.0,95,0.00,,---,0.00,0.00,VWS V14.01,2015-02-01 08:46:00,
2015-02-01 00:51:00,39.0,37.7,30.02,WNW,293,0.0,0.0,95,0.00,,---,0.00,0.00,VWS V14.01,2015-02-01 08:51:00,
2015-02-01 00:56:00,38.9,37.6,30.02,NE,41,2.0,2.0,95,0.00,,---,0.00,0.00,VWS V14.01,2015-02-01 08:56:00,
2015-02-01 01:01:00,38.9,37.6,30.01,ENE,61,2.0,2.0,95,0.00,,---,0.00,0.00,VWS V14.01,2015-02-01 09:01:00,
2015-02-01 01:06:00,39.0,37.7,30.01,ENE,61,0.0,2.0,95,0.00,,---,0.00,0.00,VWS V14.01,2015-02-01 09:06:00,
2015-02-01 01:11:00,39.1,37.8,30.01,ENE,61,0.0,0.0,95,0.00,,---,0.00,0.00,VWS V14.01,2015-02-01 09:11:00,
2015-02-01 01:16:00,39.1,37.8,30.01,ENE,61,0.0,0.0,95,0.00,,---,0.00,0.00,VWS V14.01,2015-02-01 09:16:00,
2015-02-01 01:21:00,39.0,37.7,30.00,ENE,61,0.0,0.0,95,0.00,,---,0.00,0.00,VWS V14.01,2015-02-01 09:21:00,
2015-02-01 01:26:00,38.9,37.3,30.00,ENE,61,0.0,0.0,94,0.00,,---,0.00,0.00,VWS V14.01,2015-02-01 09:26:00,
2015-02-01 01:32:00,38.9,37.3,30.00,ENE,61,0.0,0.0,94,0.00,,---,0.00,0.00,VWS V14.01,2015-02-01 09:32:00,
2015-02-01 01:36:00,38.9,37.0,30.00,ENE,61,0.0,0.0,93,0.00,,---,0.00,0.00,VWS V14.01,2015-02-01 09:36:00,
2015-02-01 01:42:00,38.9,36.8,30.00,ENE,61,0.0,0.0,92,0.00,,---,0.00,0.00,VWS V14.01,2015-02-01 09:42:00,
2015-02-01 01:47:00,39.0,36.6,29.99,ENE,61,0.0,0.0,91,0.00,,---,0.00,0.00,VWS V14.01,2015-02-01 09:47:00,
2015-02-01 01:52:00,39.1,36.4,30.00,ENE,61,0.0,0.0,90,0.00,,---,0.00,0.00,VWS V14.01,2015-02-01 09:52:00,
2015-02-01 01:57:00,39.3,36.6,30.00,ENE,61,0.0,1.0,90,0.00,,---,0.00,0.00,VWS V14.01,2015-02-01 09:57:00,
2015-02-01 02:02:00,39.4,36.7,30.00,NNW,335,0.0,0.0,90,0.00,,---,0.00,0.00,VWS V14.01,2015-02-01 10:02:00,
2015-02-01 02:07:00,39.6,37.2,30.00,WNW,294,0.0,3.0,91,0.00,,---,0.00,0.00,VWS V14.01,2015-02-01 10:07:00,
2015-02-01 02:12:00,39.6,37.2,30.00,West,270,2.0,2.0,91,0.00,,---,0.00,0.00,VWS V14.01,2015-02-01 10:12:00,
2015-02-01 02:17:00,39.6,37.5,30.00,West,275,2.0,2.0,92,0.00,,---,0.00,0.00,VWS V14.01,2015-02-01 10:17:00,
2015-02-01 02:22:00,39.7,37.6,30.00,West,275,0.0,2.0,92,0.00,,---,0.00,0.00,VWS V14.01,2015-02-01 10:22:00,
2015-02-01 02:27:00,39.7,37.8,30.00,WNW,282,1.0,3.0,93,0.00,,---,0.00,0.00,VWS V14.01,2015-02-01 10:27:00,
2015-02-01 02:32:00,39.8,38.0,30.01,West,277,2.0,4.0,93,0.00,,---,0.00,0.00,VWS V14.01,2015-02-01 10:32:00,
2015-02-01 02:37:00,39.9,38.0,30.01,WNW,288,0.0,3.0,93,0.00,,---,0.00,0.00,VWS V14.01,2015-02-01 10:37:00,
2015-02-01 02:42:00,40.0,38.4,30.01,West,265,1.0,4.0,94,0.00,,---,0.00,0.00,VWS V14.01,2015-02-01 10:42:00,
2015-02-01 02:47:00,40.1,38.5,30.01,West,280,0.0,4.0,94,0.00,,---,0.00,0.00,VWS V14.01,2015-02-01 10:47:00,
2015-02-01 02:52:00,40.1,38.5,30.01,West,264,1.0,3.0,94,0.00,,---,0.00,0.00,VWS V14.01,2015-02-01 10:52:00,
2015-02-01 02:57:00,40.1,38.5,30.01,WSW,258,4.0,6.0,94,0.00,,---,0.00,0.00,VWS V14.01,2015-02-01 10:57:00,
2015-02-01 03:02:00,40.1,38.5,30.01,WNW,294,1.0,4.0,94,0.00,,---,0.00,0.00,VWS V14.01,2015-02-01 11:02:00,
2015-02-01 03:07:00,40.0,38.4,30.01,West,277,0.0,3.0,94,0.00,,---,0.00,0.00,VWS V14.01,2015-02-01 11:07:00,
2015-02-01 03:12:00,40.0,38.4,30.01,WNW,288,1.0,3.0,94,0.00,,---,0.00,0.00,VWS V14.01,2015-02-01 11:12:00,
2015-02-01 03:17:00,40.0,38.4,30.02,WNW,288,0.0,3.0,94,0.00,,---,0.00,0.00,VWS V14.01,2015-02-01 11:17:00,
2015-02-01 03:22:00,40.0,38.4,30.01,WNW,288,0.0,1.0,94,0.00,,---,0.00,0.00,VWS V14.01,2015-02-01 11:22:00,
2015-02-01 03:27:00,40.0,38.7,30.02,WNW,288,0.0,0.0,95,0.00,,---,0.00,0.00,VWS V14.01,2015-02-01 11:27:00,
2015-02-01 03:32:00,40.0,38.7,30.02,WNW,288,0.0,2.0,95,0.00,,---,0.00,0.00,VWS V14.01,2015-02-01 11:32:00,
2015-02-01 03:37:00,40.0,38.7,30.02,WNW,288,0.0,2.0,95,0.00,,---,0.00,0.00,VWS V14.01,2015-02-01 11:37:00,
2015-02-01 03:42:00,40.0,38.7,30.02,WNW,288,0.0,2.0,95,0.00,,---,0.00,0.00,VWS V14.01,2015-02-01 11:42:00,
2015-02-01 03:47:00,40.0,38.7,30.02,WNW,288,0.0,2.0,95,0.00,,---,0.00,0.00,VWS V14.01,2015-02-01 11:47:00,
2015-02-01 03:52:00,40.1,38.8,30.02,West,270,0.0,2.0,95,0.00,,---,0.00,0.00,VWS V14.01,2015-02-01 11:52:00,
2015-02-01 03:57:00,40.1,38.8,30.02,West,270,0.0,1.0,95,0.00,,---,0.00,0.00,VWS V14.01,2015-02-01 11:57:00,
2015-02-01 04:02:00,40.1,38.8,30.02,West,270,0.0,2.0,95,0.00,,---,0.00,0.00,VWS V14.01,2015-02-01 12:02:00,
2015-02-01 04:07:00,40.2,38.9,30.02,West,270,0.0,1.0,95,0.00,,---,0.00,0.00,VWS V14.01,2015-02-01 12:07:00,
2015-02-01 04:12:00,40.2,38.9,30.01,West,270,0.0,0.0,95,0.00,,---,0.00,0.00,VWS V14.01,2015-02-01 12:12:00,
2015-02-01 04:17:00,40.2,38.9,30.02,West,270,0.0,0.0,95,0.00,,---,0.00,0.00,VWS V14.01,2015-02-01 12:17:00,
2015-02-01 04:22:00,40.2,38.9,30.01,West,270,0.0,0.0,95,0.00,,---,0.00,0.00,VWS V14.01,2015-02-01 12:22:00,
2015-02-01 04:27:00,40.1,38.8,30.01,West,270,0.0,0.0,95,0.00,,---,0.00,0.00,VWS V14.01,2015-02-01 12:27:00,
2015-02-01 04:32:00,40.1,38.8,30.01,West,270,0.0,0.0,95,0.00,,---,0.00,0.00,VWS V14.01,2015-02-01 12:32:00,
2015-02-01 04:37:00,40.1,38.8,30.01,West,270,0.0,0.0,95,0.00,,---,0.00,0.00,VWS V14.01,2015-02-01 12:37:00,
2015-02-01 04:42:00,40.1,38.8,30.01,West,270,0.0,0.0,95,0.00,,---,0.00,0.00,VWS V14.01,2015-02-01 12:42:00,
2015-02-01 04:47:00,40.1,38.8,30.01,West,270,0.0,0.0,95,0.00,,---,0.00,0.00,VWS V14.01,2015-02-01 12:47:00,
2015-02-01 04:52:00,40.1,38.8,30.00,West,270,0.0,0.0,95,0.00,,---,0.00,0.00,VWS V14.01,2015-02-01 12:52:00,
2015-02-01 04:57:00,40.1,38.8,30.00,West,270,0.0,0.0,95,0.00,,---,0.00,0.00,VWS V14.01,2015-02-01 12:57:00,
2015-02-01 05:02:00,40.0,38.7,30.00,West,270,0.0,0.0,95,0.00,,---,0.00,0.00,VWS V14.01,2015-02-01 13:02:00,
2015-02-01 05:07:00,40.0,38.7,30.00,West,270,0.0,0.0,95,0.00,,---,0.00,0.00,VWS V14.01,2015-02-01 13:07:00,
2015-02-01 05:12:00,40.0,38.7,30.00,West,270,0.0,0.0,95,0.00,,---,0.00,0.00,VWS V14.01,2015-02-01 13:12:00,
2015-02-01 05:17:00,40.0,38.7,30.00,West,270,0.0,0.0,95,0.00,,---,0.00,0.00,VWS V14.01,2015-02-01 13:17:00,
2015-02-01 05:22:00,40.0,38.7,30.00,West,270,0.0,0.0,95,0.00,,---,0.00,0.00,VWS V14.01,2015-02-01 13:22:00,
2015-02-01 05:27:00,40.0,38.7,30.00,West,270,0.0,0.0,95,0.00,,---,0.00,0.00,VWS V14.01,2015-02-01 13:27:00,
2015-02-01 05:32:00,40.0,38.7,30.00,West,270,0.0,0.0,95,0.00,,---,0.00,0.00,VWS V14.01,2015-02-01 13:32:00,
2015-02-01 05:37:00,40.0,38.7,30.00,West,270,0.0,0.0,95,0.00,,---,0.00,0.00,VWS V14.01,2015-02-01 13:37:00,
2015-02-01 05:42:00,40.0,38.4,29.99,West,270,0.0,0.0,94,0.00,,---,0.00,0.00,VWS V14.01,2015-02-01 13:42:00,
2015-02-01 05:47:00,40.0,38.4,29.99,West,270,0.0,0.0,94,0.00,,---,0.00,0.00,VWS V14.01,2015-02-01 13:47:00,
2015-02-01 05:52:00,40.0,38.4,29.99,West,270,0.0,0.0,94,0.00,,---,0.00,0.00,VWS V14.01,2015-02-01 13:52:00,
2015-02-01 05:57:00,40.0,38.4,29.98,West,270,0.0,0.0,94,0.00,,---,0.00,0.00,VWS V14.01,2015-02-01 13:57:00,
2015-02-01 06:02:00,40.0,38.4,29.98,West,270,0.0,0.0,94,0.00,,---,0.00,0.00,VWS V14.01,2015-02-01 14:02:00,
2015-02-01 06:07:00,40.0,38.4,29.97,West,270,0.0,0.0,94,0.00,,---,0.00,0.00,VWS V14.01,2015-02-01 14:07:00,
2015-02-01 06:12:00,40.0,38.4,29.97,West,270,0.0,0.0,94,0.00,,---,0.00,0.00,VWS V14.01,2015-02-01 14:12:00,
2015-02-01 06:17:00,39.9,38.3,29.97,West,270,0.0,0.0,94,0.00,,---,0.00,0.00,VWS V14.01,2015-02-01 14:17:00,
2015-02-01 06:22:00,39.9,38.3,29.97,West,270,0.0,0.0,94,0.00,,---,0.00,0.00,VWS V14.01,2015-02-01 14:22:00,
2015-02-01 06:27:00,39.9,38.3,29.96,West,270,0.0,0.0,94,0.00,,---,0.00,0.00,VWS V14.01,2015-02-01 14:27:00,
2015-02-01 06:32:00,39.8,38.0,29.96,West,270,0.0,0.0,93,0.00,,---,0.00,0.00,VWS V14.01,2015-02-01 14:32:00,
2015-02-01 06:37:00,39.8,38.0,29.96,West,270,0.0,0.0,93,0.00,,---,0.00,0.00,VWS V14.01,2015-02-01 14:37:00,
2015-02-01 06:42:00,39.8,38.0,29.96,West,270,0.0,0.0,93,0.00,,---,0.00,0.00,VWS V14.01,2015-02-01 14:42:00,
2015-02-01 06:47:00,39.9,38.0,29.95,West,270,0.0,0.0,93,0.00,,---,0.00,0.00,VWS V14.01,2015-02-01 14:47:00,
2015-02-01 06:52:00,39.9,38.0,29.95,West,271,0.0,2.0,93,0.00,,---,0.00,0.00,VWS V14.01,2015-02-01 14:52:00,
2015-02-01 06:57:00,40.0,38.1,29.96,West,272,0.0,2.0,93,0.00,,---,0.00,0.00,VWS V14.01,2015-02-01 14:57:00,
2015-02-01 07:02:00,40.0,38.1,29.96,West,272,0.0,1.0,93,0.00,,---,0.00,0.00,VWS V14.01,2015-02-01 15:02:00,
2015-02-01 07:07:00,40.1,38.2,29.96,West,273,1.0,2.0,93,0.00,,---,0.00,0.00,VWS V14.01,2015-02-01 15:07:00,
2015-02-01 07:12:00,40.2,38.6,29.95,WNW,288,1.0,3.0,94,0.00,,---,0.00,0.00,VWS V14.01,2015-02-01 15:12:00,
2015-02-01 07:17:00,40.2,38.6,29.95,West,269,0.0,3.0,94,0.00,,---,0.00,0.00,VWS V14.01,2015-02-01 15:17:00,
2015-02-01 07:22:00,40.3,38.7,29.95,WNW,288,0.0,3.0,94,0.00,,---,0.00,0.00,VWS V14.01,2015-02-01 15:22:00,
2015-02-01 07:27:00,40.3,38.7,29.95,WNW,296,0.0,3.0,94,0.00,,---,0.00,0.00,VWS V14.01,2015-02-01 15:27:00,
2015-02-01 07:32:00,40.4,38.8,29.95,WNW,296,0.0,2.0,94,0.00,,---,0.00,0.00,VWS V14.01,2015-02-01 15:32:00,
2015-02-01 07:37:00,40.4,38.8,29.95,WNW,296,0.0,0.0,94,0.00,,---,0.00,0.00,VWS V14.01,2015-02-01 15:37:00,
2015-02-01 07:42:00,40.3,38.7,29.95,WNW,296,0.0,0.0,94,0.00,,---,0.00,0.00,VWS V14.01,2015-02-01 15:42:00,
2015-02-01 07:47:00,40.3,38.7,29.95,WNW,296,0.0,0.0,94,0.00,,---,0.00,0.00,VWS V14.01,2015-02-01 15:47:00,
2015-02-01 07:52:00,40.3,38.7,29.95,WNW,294,1.0,1.0,94,0.00,,---,0.00,0.00,VWS V14.01,2015-02-01 15:52:00,
2015-02-01 07:57:00,40.3,38.7,29.95,WNW,294,0.0,3.0,94,0.00,,---,0.00,0.00,VWS V14.01,2015-02-01 15:57:00,
2015-02-01 08:02:00,40.4,38.8,29.95,West,269,1.0,3.0,94,0.00,,---,0.00,0.00,VWS V14.01,2015-02-01 16:02:00,
2015-02-01 08:07:00,40.4,38.8,29.95,WSW,251,1.0,3.0,94,0.00,,---,0.00,9.00,VWS V14.01,2015-02-01 16:07:00,
2015-02-01 08:12:00,40.5,38.9,29.95,WNW,290,1.0,3.0,94,0.00,,---,0.00,9.00,VWS V14.01,2015-02-01 16:12:00,
2015-02-01 08:17:00,40.6,39.0,29.96,WNW,289,2.0,3.0,94,0.00,,---,0.00,9.00,VWS V14.01,2015-02-01 16:17:00,
2015-02-01 08:22:00,40.7,39.1,29.96,WNW,299,2.0,3.0,94,0.00,,---,0.00,11.00,VWS V14.01,2015-02-01 16:22:00,
2015-02-01 08:27:00,40.7,39.4,29.96,West,277,0.0,3.0,95,0.00,,---,0.00,11.00,VWS V14.01,2015-02-01 16:27:00,
2015-02-01 08:32:00,40.8,39.2,29.96,West,276,0.0,2.0,94,0.00,,---,0.00,7.00,VWS V14.01,2015-02-01 16:32:00,
2015-02-01 08:37:00,40.8,39.2,29.96,West,276,0.0,0.0,94,0.00,,---,0.00,11.00,VWS V14.01,2015-02-01 16:37:00,
2015-02-01 08:42:00,40.8,39.2,29.96,West,276,0.0,0.0,94,0.00,,---,0.00,12.00,VWS V14.01,2015-02-01 16:42:00,
2015-02-01 08:48:00,40.9,39.3,29.96,West,276,0.0,0.0,94,0.00,,---,0.00,18.00,VWS V14.01,2015-02-01 16:48:00,
2015-02-01 08:53:00,40.9,39.3,29.97,West,276,0.0,1.0,94,0.00,,---,0.00,18.00,VWS V14.01,2015-02-01 16:53:00,
2015-02-01 08:58:00,41.0,39.4,29.97,West,276,0.0,1.0,94,0.00,,---,0.00,14.00,VWS V14.01,2015-02-01 16:58:00,
2015-02-01 09:03:00,41.1,39.5,29.97,West,276,0.0,0.0,94,0.00,,---,0.00,16.00,VWS V14.01,2015-02-01 17:03:00,
2015-02-01 09:08:00,41.1,39.5,29.97,West,276,0.0,0.0,94,0.00,,---,0.00,12.00,VWS V14.01,2015-02-01 17:08:00,
2015-02-01 09:13:00,41.2,39.6,29.97,West,276,0.0,1.0,94,0.00,,---,0.00,12.00,VWS V14.01,2015-02-01 17:13:00,
2015-02-01 09:18:00,41.3,39.4,29.98,West,265,1.0,3.0,93,0.00,,---,0.00,12.00,VWS V14.01,2015-02-01 17:18:00,
2015-02-01 09:23:00,41.3,39.4,29.98,NW,311,0.0,3.0,93,0.00,,---,0.00,12.00,VWS V14.01,2015-02-01 17:23:00,
2015-02-01 09:28:00,41.3,39.4,29.98,NW,315,1.0,4.0,93,0.00,,---,0.00,14.00,VWS V14.01,2015-02-01 17:28:00,
2015-02-01 09:33:00,41.3,39.4,29.98,West,267,0.0,4.0,93,0.00,,---,0.00,19.00,VWS V14.01,2015-02-01 17:33:00,
2015-02-01 09:38:00,41.4,39.5,29.98,West,267,0.0,2.0,93,0.00,,---,0.00,21.00,VWS V14.01,2015-02-01 17:38:00,
2015-02-01 09:43:00,41.4,39.5,29.99,West,267,0.0,1.0,93,0.00,,---,0.00,18.00,VWS V14.01,2015-02-01 17:43:00,
2015-02-01 09:48:00,41.5,39.6,29.99,WNW,292,0.0,3.0,93,0.00,,---,0.00,14.00,VWS V14.01,2015-02-01 17:48:00,
2015-02-01 09:50:00,41.5,39.6,29.99,WNW,292,0.0,3.0,93,0.00,,---,0.00,14.00,VWS V14.01,2015-02-01 17:50:00,
2015-02-01 09:55:00,41.6,39.7,30.00,WNW,294,1.0,2.0,93,0.00,,---,0.00,16.00,VWS V14.01,2015-02-01 17:55:00,
2015-02-01 10:00:00,41.6,39.7,30.00,West,281,0.0,2.0,93,0.00,,---,0.00,19.00,VWS V14.01,2015-02-01 18:00:00,
2015-02-01 10:05:00,41.6,39.7,30.00,WSW,252,0.0,2.0,93,0.00,,---,0.00,21.00,VWS V14.01,2015-02-01 18:05:00,
2015-02-01 10:10:00,41.7,39.8,30.00,WSW,254,0.0,3.0,93,0.00,,---,0.00,19.00,VWS V14.01,2015-02-01 18:10:00,
2015-02-01 10:15:00,41.7,39.5,30.00,SSE,157,0.0,4.0,92,0.01,,---,0.01,23.00,VWS V14.01,2015-02-01 18:15:00,
2015-02-01 10:20:00,41.8,39.7,30.00,SW,234,0.0,1.0,92,0.01,,---,0.01,26.00,VWS V14.01,2015-02-01 18:20:00,
2015-02-01 10:25:00,41.8,39.9,30.00,North,360,0.0,2.0,93,0.01,,---,0.01,16.00,VWS V14.01,2015-02-01 18:25:00,
2015-02-01 10:30:00,41.8,39.9,30.01,SE,146,1.0,2.0,93,0.01,,---,0.01,14.00,VWS V14.01,2015-02-01 18:30:00,
2015-02-01 10:35:00,41.8,39.9,30.00,ESE,109,0.0,4.0,93,0.02,,---,0.02,21.00,VWS V14.01,2015-02-01 18:35:00,
2015-02-01 10:40:00,41.8,40.2,30.01,ESE,109,0.0,2.0,94,0.02,,---,0.02,26.00,VWS V14.01,2015-02-01 18:40:00,
2015-02-01 10:45:00,41.8,40.2,30.01,ESE,109,0.0,0.0,94,0.02,,---,0.02,28.00,VWS V14.01,2015-02-01 18:45:00,
2015-02-01 10:50:00,41.8,40.2,30.00,NE,51,0.0,2.0,94,0.02,,---,0.02,28.00,VWS V14.01,2015-02-01 18:50:00,
2015-02-01 10:55:00,41.9,40.3,30.00,NE,51,0.0,2.0,94,0.02,,---,0.02,30.00,VWS V14.01,2015-02-01 18:55:00,
2015-02-01 11:00:00,42.0,40.7,30.00,NE,51,0.0,1.0,95,0.02,,---,0.02,28.00,VWS V14.01,2015-02-01 19:00:00,
2015-02-01 11:05:00,41.9,40.3,30.00,NE,47,0.0,0.0,94,0.02,,---,0.02,37.00,VWS V14.01,2015-02-01 19:05:00,
2015-02-01 11:10:00,41.9,40.6,30.00,NE,47,0.0,2.0,95,0.02,,---,0.02,33.00,VWS V14.01,2015-02-01 19:10:00,
2015-02-01 11:15:00,41.9,40.6,30.00,NE,47,0.0,1.0,95,0.01,,---,0.02,26.00,VWS V14.01,2015-02-01 19:15:00,
2015-02-01 11:20:00,42.0,40.7,29.99,NE,47,0.0,0.0,95,0.01,,---,0.02,26.00,VWS V14.01,2015-02-01 19:20:00,
2015-02-01 11:25:00,42.0,40.7,29.99,NE,47,0.0,0.0,95,0.01,,---,0.02,23.00,VWS V14.01,2015-02-01 19:25:00,
2015-02-01 11:30:00,42.1,40.8,29.99,NE,47,0.0,1.0,95,0.01,,---,0.02,28.00,VWS V14.01,2015-02-01 19:30:00,
2015-02-01 11:35:00,42.1,40.8,29.99,NE,47,0.0,1.0,95,0.00,,---,0.02,30.00,VWS V14.01,2015-02-01 19:35:00,
2015-02-01 11:40:00,42.2,40.9,29.99,NE,47,0.0,0.0,95,0.00,,---,0.02,23.00,VWS V14.01,2015-02-01 19:40:00,
2015-02-01 11:45:00,42.2,40.9,29.99,NE,47,0.0,0.0,95,0.00,,---,0.02,23.00,VWS V14.01,2015-02-01 19:45:00,
2015-02-01 11:50:00,42.3,41.0,29.99,NNE,24,0.0,2.0,95,0.00,,---,0.02,19.00,VWS V14.01,2015-02-01 19:50:00,
2015-02-01 11:55:00,42.3,41.0,29.98,NNE,24,0.0,2.0,95,0.00,,---,0.02,28.00,VWS V14.01,2015-02-01 19:55:00,
2015-02-01 12:00:00,42.3,41.0,29.99,NNE,15,0.0,1.0,95,0.00,,---,0.02,19.00,VWS V14.01,2015-02-01 20:00:00,